sensor_id;sensor_type;location;lat;lon;timestamp;temperature;humidity
18898;DHT22;9581;49.484;8.556;2024-01-07T00:00:28;5.30;99.90
18898;DHT22;9581;49.484;8.556;2024-01-07T00:02:57;5.40;99.90
18898;DHT22;9581;49.484;8.556;2024-01-07T00:05:24;5.30;99.90
18898;DHT22;9581;49.484;8.556;2024-01-07T00:07:51;5.30;99.90
18898;DHT22;9581;49.484;8.556;2024-01-07T00:10:17;5.40;99.90
18898;DHT22;9581;49.484;8.556;2024-01-07T00:12:44;5.40;99.90
18898;DHT22;9581;49.484;8.556;2024-01-07T00:15:11;5.30;99.90
18898;DHT22;9581;49.484;8.556;2024-01-07T00:17:37;5.40;99.90
18898;DHT22;9581;49.484;8.556;2024-01-07T00:20:07;5.40;99.90
18898;DHT22;9581;49.484;8.556;2024-01-07T00:22:33;5.40;99.90
18898;DHT22;9581;49.484;8.556;2024-01-07T00:25:00;5.30;99.90
18898;DHT22;9581;49.484;8.556;2024-01-07T00:27:27;5.40;99.90
18898;DHT22;9581;49.484;8.556;2024-01-07T00:29:53;5.40;99.90
18898;DHT22;9581;49.484;8.556;2024-01-07T00:32:20;5.40;99.90
18898;DHT22;9581;49.484;8.556;2024-01-07T00:34:47;5.40;99.90
18898;DHT22;9581;49.484;8.556;2024-01-07T00:37:15;5.30;99.90
18898;DHT22;9581;49.484;8.556;2024-01-07T00:39:41;5.30;99.90
18898;DHT22;9581;49.484;8.556;2024-01-07T00:42:11;5.30;99.90
18898;DHT22;9581;49.484;8.556;2024-01-07T00:44:38;5.20;99.90
18898;DHT22;9581;49.484;8.556;2024-01-07T00:47:05;5.20;99.90
18898;DHT22;9581;49.484;8.556;2024-01-07T00:49:32;5.30;99.90
18898;DHT22;9581;49.484;8.556;2024-01-07T00:51:58;5.30;99.90
18898;DHT22;9581;49.484;8.556;2024-01-07T00:54:26;5.30;99.90
18898;DHT22;9581;49.484;8.556;2024-01-07T00:56:53;5.30;99.90
18898;DHT22;9581;49.484;8.556;2024-01-07T00:59:19;5.30;99.90
18898;DHT22;9581;49.484;8.556;2024-01-07T01:01:46;5.20;99.90
18898;DHT22;9581;49.484;8.556;2024-01-07T01:04:13;5.20;99.90
18898;DHT22;9581;49.484;8.556;2024-01-07T01:06:39;5.20;99.90
18898;DHT22;9581;49.484;8.556;2024-01-07T01:09:06;5.10;99.90
18898;DHT22;9581;49.484;8.556;2024-01-07T01:11:34;5.10;99.90
18898;DHT22;9581;49.484;8.556;2024-01-07T01:14:01;5.20;99.90
18898;DHT22;9581;49.484;8.556;2024-01-07T01:16:27;5.30;99.90
18898;DHT22;9581;49.484;8.556;2024-01-07T01:18:54;5.20;99.90
18898;DHT22;9581;49.484;8.556;2024-01-07T01:21:21;5.20;99.90
18898;DHT22;9581;49.484;8.556;2024-01-07T01:23:48;5.20;99.90
18898;DHT22;9581;49.484;8.556;2024-01-07T01:26:15;5.20;99.90
18898;DHT22;9581;49.484;8.556;2024-01-07T01:28:43;5.20;99.90
18898;DHT22;9581;49.484;8.556;2024-01-07T01:31:13;5.10;99.90
18898;DHT22;9581;49.484;8.556;2024-01-07T01:33:39;5.10;99.90
18898;DHT22;9581;49.484;8.556;2024-01-07T01:36:07;5.20;99.90
18898;DHT22;9581;49.484;8.556;2024-01-07T01:38:34;5.10;99.90
18898;DHT22;9581;49.484;8.556;2024-01-07T01:41:00;5.00;99.90
18898;DHT22;9581;49.484;8.556;2024-01-07T01:43:28;5.10;99.90
18898;DHT22;9581;49.484;8.556;2024-01-07T01:45:56;5.20;99.90
18898;DHT22;9581;49.484;8.556;2024-01-07T01:48:24;5.20;99.90
18898;DHT22;9581;49.484;8.556;2024-01-07T01:50:51;5.10;99.90
18898;DHT22;9581;49.484;8.556;2024-01-07T01:53:19;5.00;99.90
18898;DHT22;9581;49.484;8.556;2024-01-07T01:55:46;5.00;99.90
18898;DHT22;9581;49.484;8.556;2024-01-07T01:58:13;5.00;99.90
18898;DHT22;9581;49.484;8.556;2024-01-07T02:00:40;5.10;99.90
18898;DHT22;9581;49.484;8.556;2024-01-07T02:03:08;5.10;99.90
18898;DHT22;9581;49.484;8.556;2024-01-07T02:05:35;5.00;99.90
18898;DHT22;9581;49.484;8.556;2024-01-07T02:08:02;5.10;99.90
18898;DHT22;9581;49.484;8.556;2024-01-07T02:10:29;5.00;99.90
18898;DHT22;9581;49.484;8.556;2024-01-07T02:12:59;5.00;99.90
18898;DHT22;9581;49.484;8.556;2024-01-07T02:15:26;5.00;99.90
18898;DHT22;9581;49.484;8.556;2024-01-07T02:17:53;5.10;99.90
18898;DHT22;9581;49.484;8.556;2024-01-07T02:20:21;5.20;99.90
18898;DHT22;9581;49.484;8.556;2024-01-07T02:22:48;5.10;99.90
18898;DHT22;9581;49.484;8.556;2024-01-07T02:25:16;5.00;99.90
18898;DHT22;9581;49.484;8.556;2024-01-07T02:27:42;5.00;99.90
18898;DHT22;9581;49.484;8.556;2024-01-07T02:30:10;5.00;99.90
18898;DHT22;9581;49.484;8.556;2024-01-07T02:32:37;5.00;99.90
18898;DHT22;9581;49.484;8.556;2024-01-07T02:35:04;5.00;99.90
18898;DHT22;9581;49.484;8.556;2024-01-07T02:37:31;4.90;99.90
18898;DHT22;9581;49.484;8.556;2024-01-07T02:39:57;5.00;99.90
18898;DHT22;9581;49.484;8.556;2024-01-07T02:42:25;5.10;99.90
18898;DHT22;9581;49.484;8.556;2024-01-07T02:44:52;5.00;99.90
18898;DHT22;9581;49.484;8.556;2024-01-07T02:47:19;5.10;99.90
18898;DHT22;9581;49.484;8.556;2024-01-07T02:49:45;4.90;99.90
18898;DHT22;9581;49.484;8.556;2024-01-07T02:52:12;5.00;99.90
18898;DHT22;9581;49.484;8.556;2024-01-07T02:54:39;5.00;99.90
18898;DHT22;9581;49.484;8.556;2024-01-07T02:57:05;5.00;99.90
18898;DHT22;9581;49.484;8.556;2024-01-07T02:59:33;5.10;99.90
18898;DHT22;9581;49.484;8.556;2024-01-07T03:02:00;5.10;99.90
18898;DHT22;9581;49.484;8.556;2024-01-07T03:04:27;5.10;99.90
18898;DHT22;9581;49.484;8.556;2024-01-07T03:06:53;5.10;99.90
18898;DHT22;9581;49.484;8.556;2024-01-07T03:09:20;5.10;99.90
18898;DHT22;9581;49.484;8.556;2024-01-07T03:11:47;5.10;99.90
18898;DHT22;9581;49.484;8.556;2024-01-07T03:14:13;5.00;99.90
18898;DHT22;9581;49.484;8.556;2024-01-07T03:16:43;5.00;99.90
18898;DHT22;9581;49.484;8.556;2024-01-07T03:19:10;5.10;99.90
18898;DHT22;9581;49.484;8.556;2024-01-07T03:21:37;5.00;99.90
18898;DHT22;9581;49.484;8.556;2024-01-07T03:24:04;5.00;99.90
18898;DHT22;9581;49.484;8.556;2024-01-07T03:26:31;5.00;99.90
18898;DHT22;9581;49.484;8.556;2024-01-07T03:28:58;5.00;99.90
18898;DHT22;9581;49.484;8.556;2024-01-07T03:31:26;4.90;99.90
18898;DHT22;9581;49.484;8.556;2024-01-07T03:33:54;4.90;99.90
18898;DHT22;9581;49.484;8.556;2024-01-07T03:36:21;4.90;99.90
18898;DHT22;9581;49.484;8.556;2024-01-07T03:38:48;5.00;99.90
18898;DHT22;9581;49.484;8.556;2024-01-07T03:41:16;5.00;99.90
18898;DHT22;9581;49.484;8.556;2024-01-07T03:43:43;5.00;99.90
18898;DHT22;9581;49.484;8.556;2024-01-07T03:46:10;5.00;99.90
18898;DHT22;9581;49.484;8.556;2024-01-07T03:48:36;5.00;99.90
18898;DHT22;9581;49.484;8.556;2024-01-07T03:51:04;5.00;99.90
18898;DHT22;9581;49.484;8.556;2024-01-07T03:53:32;5.00;99.90
18898;DHT22;9581;49.484;8.556;2024-01-07T03:55:58;5.00;99.90
18898;DHT22;9581;49.484;8.556;2024-01-07T03:58:25;5.00;99.90
18898;DHT22;9581;49.484;8.556;2024-01-07T04:00:52;4.90;99.90
18898;DHT22;9581;49.484;8.556;2024-01-07T04:03:18;4.90;99.90
18898;DHT22;9581;49.484;8.556;2024-01-07T04:05:45;4.90;99.90
18898;DHT22;9581;49.484;8.556;2024-01-07T04:08:13;5.00;99.90
18898;DHT22;9581;49.484;8.556;2024-01-07T04:10:41;4.90;99.90
18898;DHT22;9581;49.484;8.556;2024-01-07T04:13:08;5.00;99.90
18898;DHT22;9581;49.484;8.556;2024-01-07T04:15:34;4.90;99.90
18898;DHT22;9581;49.484;8.556;2024-01-07T04:18:01;5.00;99.90
18898;DHT22;9581;49.484;8.556;2024-01-07T04:20:29;5.00;99.90
18898;DHT22;9581;49.484;8.556;2024-01-07T04:22:55;5.00;99.90
18898;DHT22;9581;49.484;8.556;2024-01-07T04:25:24;4.90;99.90
18898;DHT22;9581;49.484;8.556;2024-01-07T04:27:50;5.00;99.90
18898;DHT22;9581;49.484;8.556;2024-01-07T04:30:17;5.00;99.90
18898;DHT22;9581;49.484;8.556;2024-01-07T04:32:44;4.90;99.90
18898;DHT22;9581;49.484;8.556;2024-01-07T04:35:11;4.90;99.90
18898;DHT22;9581;49.484;8.556;2024-01-07T04:37:37;5.00;99.90
18898;DHT22;9581;49.484;8.556;2024-01-07T04:40:05;4.80;99.90
18898;DHT22;9581;49.484;8.556;2024-01-07T04:42:33;4.80;99.90
18898;DHT22;9581;49.484;8.556;2024-01-07T04:45:00;4.90;99.90
18898;DHT22;9581;49.484;8.556;2024-01-07T04:47:27;5.00;99.90
18898;DHT22;9581;49.484;8.556;2024-01-07T04:49:54;4.80;99.90
18898;DHT22;9581;49.484;8.556;2024-01-07T04:52:21;4.90;99.90
18898;DHT22;9581;49.484;8.556;2024-01-07T04:54:48;4.90;99.90
18898;DHT22;9581;49.484;8.556;2024-01-07T04:57:15;4.90;99.90
18898;DHT22;9581;49.484;8.556;2024-01-07T04:59:43;4.90;99.90
18898;DHT22;9581;49.484;8.556;2024-01-07T05:02:10;4.90;99.90
18898;DHT22;9581;49.484;8.556;2024-01-07T05:04:37;4.90;99.90
18898;DHT22;9581;49.484;8.556;2024-01-07T05:07:04;4.80;99.90
18898;DHT22;9581;49.484;8.556;2024-01-07T05:09:31;4.90;99.90
18898;DHT22;9581;49.484;8.556;2024-01-07T05:11:58;4.90;99.90
18898;DHT22;9581;49.484;8.556;2024-01-07T05:14:24;4.90;99.90
18898;DHT22;9581;49.484;8.556;2024-01-07T05:16:53;4.90;99.90
18898;DHT22;9581;49.484;8.556;2024-01-07T05:19:19;4.80;99.90
18898;DHT22;9581;49.484;8.556;2024-01-07T05:21:46;4.80;99.90
18898;DHT22;9581;49.484;8.556;2024-01-07T05:24:13;4.80;99.90
18898;DHT22;9581;49.484;8.556;2024-01-07T05:26:41;4.90;99.90
18898;DHT22;9581;49.484;8.556;2024-01-07T05:29:08;4.90;99.90
18898;DHT22;9581;49.484;8.556;2024-01-07T05:31:34;5.00;99.90
18898;DHT22;9581;49.484;8.556;2024-01-07T05:34:02;4.90;99.90
18898;DHT22;9581;49.484;8.556;2024-01-07T05:36:29;4.90;99.90
18898;DHT22;9581;49.484;8.556;2024-01-07T05:38:56;4.90;99.90
18898;DHT22;9581;49.484;8.556;2024-01-07T05:41:22;4.80;99.90
18898;DHT22;9581;49.484;8.556;2024-01-07T05:43:49;5.00;99.90
18898;DHT22;9581;49.484;8.556;2024-01-07T05:46:16;5.00;99.90
18898;DHT22;9581;49.484;8.556;2024-01-07T05:48:44;4.90;99.90
18898;DHT22;9581;49.484;8.556;2024-01-07T05:51:12;5.00;99.90
18898;DHT22;9581;49.484;8.556;2024-01-07T05:53:40;5.00;99.90
18898;DHT22;9581;49.484;8.556;2024-01-07T05:56:07;4.90;99.90
18898;DHT22;9581;49.484;8.556;2024-01-07T05:58:34;5.00;99.90
18898;DHT22;9581;49.484;8.556;2024-01-07T06:01:00;5.00;99.90
18898;DHT22;9581;49.484;8.556;2024-01-07T06:03:27;4.90;99.90
18898;DHT22;9581;49.484;8.556;2024-01-07T06:05:54;4.90;99.90
18898;DHT22;9581;49.484;8.556;2024-01-07T06:08:22;5.00;99.90
18898;DHT22;9581;49.484;8.556;2024-01-07T06:10:48;4.90;99.90
18898;DHT22;9581;49.484;8.556;2024-01-07T06:13:15;4.90;99.90
18898;DHT22;9581;49.484;8.556;2024-01-07T06:15:42;4.90;99.90
18898;DHT22;9581;49.484;8.556;2024-01-07T06:18:09;4.90;99.90
18898;DHT22;9581;49.484;8.556;2024-01-07T06:20:36;5.00;99.90
18898;DHT22;9581;49.484;8.556;2024-01-07T06:23:02;5.00;99.90
18898;DHT22;9581;49.484;8.556;2024-01-07T06:25:29;5.00;99.90
18898;DHT22;9581;49.484;8.556;2024-01-07T06:27:56;4.90;99.90
18898;DHT22;9581;49.484;8.556;2024-01-07T06:30:23;4.90;99.90
18898;DHT22;9581;49.484;8.556;2024-01-07T06:32:50;4.90;99.90
18898;DHT22;9581;49.484;8.556;2024-01-07T06:35:17;4.90;99.90
18898;DHT22;9581;49.484;8.556;2024-01-07T06:37:43;4.90;99.90
18898;DHT22;9581;49.484;8.556;2024-01-07T06:40:11;4.80;99.90
18898;DHT22;9581;49.484;8.556;2024-01-07T06:42:39;5.00;99.90
18898;DHT22;9581;49.484;8.556;2024-01-07T06:45:07;5.00;99.90
18898;DHT22;9581;49.484;8.556;2024-01-07T06:47:34;5.10;99.90
18898;DHT22;9581;49.484;8.556;2024-01-07T06:50:00;5.10;99.90
18898;DHT22;9581;49.484;8.556;2024-01-07T06:52:27;5.00;99.90
18898;DHT22;9581;49.484;8.556;2024-01-07T06:54:54;5.10;99.90
18898;DHT22;9581;49.484;8.556;2024-01-07T06:57:20;5.10;99.90
18898;DHT22;9581;49.484;8.556;2024-01-07T06:59:48;5.10;99.90
18898;DHT22;9581;49.484;8.556;2024-01-07T07:02:15;5.00;99.90
18898;DHT22;9581;49.484;8.556;2024-01-07T07:04:42;5.00;99.90
18898;DHT22;9581;49.484;8.556;2024-01-07T07:07:09;5.00;99.90
18898;DHT22;9581;49.484;8.556;2024-01-07T07:09:35;5.10;99.90
18898;DHT22;9581;49.484;8.556;2024-01-07T07:12:02;5.00;99.90
18898;DHT22;9581;49.484;8.556;2024-01-07T07:14:29;5.00;99.90
18898;DHT22;9581;49.484;8.556;2024-01-07T07:16:58;5.10;99.90
18898;DHT22;9581;49.484;8.556;2024-01-07T07:19:24;5.10;99.90
18898;DHT22;9581;49.484;8.556;2024-01-07T07:21:51;5.10;99.90
18898;DHT22;9581;49.484;8.556;2024-01-07T07:24:18;5.00;99.90
18898;DHT22;9581;49.484;8.556;2024-01-07T07:26:44;5.10;99.90
18898;DHT22;9581;49.484;8.556;2024-01-07T07:29:11;5.10;99.90
18898;DHT22;9581;49.484;8.556;2024-01-07T07:31:38;5.10;99.90
18898;DHT22;9581;49.484;8.556;2024-01-07T07:34:08;5.10;99.90
18898;DHT22;9581;49.484;8.556;2024-01-07T07:36:36;5.20;99.90
18898;DHT22;9581;49.484;8.556;2024-01-07T07:39:03;5.10;99.90
18898;DHT22;9581;49.484;8.556;2024-01-07T07:41:29;5.10;99.90
18898;DHT22;9581;49.484;8.556;2024-01-07T07:43:56;5.20;99.90
18898;DHT22;9581;49.484;8.556;2024-01-07T07:46:23;5.20;99.90
18898;DHT22;9581;49.484;8.556;2024-01-07T07:48:49;5.20;99.90
18898;DHT22;9581;49.484;8.556;2024-01-07T07:51:17;5.10;99.90
18898;DHT22;9581;49.484;8.556;2024-01-07T07:53:44;5.20;99.90
18898;DHT22;9581;49.484;8.556;2024-01-07T07:56:11;5.10;99.90
18898;DHT22;9581;49.484;8.556;2024-01-07T07:58:37;5.20;99.90
18898;DHT22;9581;49.484;8.556;2024-01-07T08:01:04;5.30;99.90
18898;DHT22;9581;49.484;8.556;2024-01-07T08:03:32;5.30;99.90
18898;DHT22;9581;49.484;8.556;2024-01-07T08:05:58;5.30;99.90
18898;DHT22;9581;49.484;8.556;2024-01-07T08:08:26;5.30;99.90
18898;DHT22;9581;49.484;8.556;2024-01-07T08:10:53;5.20;99.90
18898;DHT22;9581;49.484;8.556;2024-01-07T08:13:20;5.20;99.90
18898;DHT22;9581;49.484;8.556;2024-01-07T08:15:47;5.30;99.90
18898;DHT22;9581;49.484;8.556;2024-01-07T08:18:14;5.30;99.90
18898;DHT22;9581;49.484;8.556;2024-01-07T08:20:41;5.30;99.90
18898;DHT22;9581;49.484;8.556;2024-01-07T08:23:07;5.30;99.90
18898;DHT22;9581;49.484;8.556;2024-01-07T08:25:37;5.40;99.90
18898;DHT22;9581;49.484;8.556;2024-01-07T08:28:03;5.30;99.90
18898;DHT22;9581;49.484;8.556;2024-01-07T08:30:30;5.40;99.90
18898;DHT22;9581;49.484;8.556;2024-01-07T08:32:57;5.20;99.90
18898;DHT22;9581;49.484;8.556;2024-01-07T08:35:23;5.30;99.90
18898;DHT22;9581;49.484;8.556;2024-01-07T08:37:50;5.20;99.90
18898;DHT22;9581;49.484;8.556;2024-01-07T08:40:17;5.20;99.90
18898;DHT22;9581;49.484;8.556;2024-01-07T08:42:45;5.30;99.90
18898;DHT22;9581;49.484;8.556;2024-01-07T08:45:12;5.30;99.90
18898;DHT22;9581;49.484;8.556;2024-01-07T08:47:39;5.30;99.90
18898;DHT22;9581;49.484;8.556;2024-01-07T08:50:06;5.20;99.90
18898;DHT22;9581;49.484;8.556;2024-01-07T08:52:33;5.00;99.90
18898;DHT22;9581;49.484;8.556;2024-01-07T08:55:00;5.10;99.90
18898;DHT22;9581;49.484;8.556;2024-01-07T08:57:27;5.00;99.90
18898;DHT22;9581;49.484;8.556;2024-01-07T08:59:55;4.90;99.90
18898;DHT22;9581;49.484;8.556;2024-01-07T09:02:22;4.90;99.90
18898;DHT22;9581;49.484;8.556;2024-01-07T09:04:48;4.90;99.90
18898;DHT22;9581;49.484;8.556;2024-01-07T09:07:15;5.00;99.90
18898;DHT22;9581;49.484;8.556;2024-01-07T09:09:42;5.10;99.90
18898;DHT22;9581;49.484;8.556;2024-01-07T09:12:08;5.00;99.90
18898;DHT22;9581;49.484;8.556;2024-01-07T09:14:37;4.90;99.90
18898;DHT22;9581;49.484;8.556;2024-01-07T09:17:05;4.90;99.90
18898;DHT22;9581;49.484;8.556;2024-01-07T09:19:31;4.80;99.90
18898;DHT22;9581;49.484;8.556;2024-01-07T09:21:58;4.90;99.90
18898;DHT22;9581;49.484;8.556;2024-01-07T09:24:25;4.80;99.90
18898;DHT22;9581;49.484;8.556;2024-01-07T09:26:51;4.80;99.90
18898;DHT22;9581;49.484;8.556;2024-01-07T09:29:18;4.80;99.90
18898;DHT22;9581;49.484;8.556;2024-01-07T09:31:45;4.90;99.90
18898;DHT22;9581;49.484;8.556;2024-01-07T09:34:13;4.90;99.90
18898;DHT22;9581;49.484;8.556;2024-01-07T09:36:43;4.90;99.90
18898;DHT22;9581;49.484;8.556;2024-01-07T09:39:10;4.90;99.90
18898;DHT22;9581;49.484;8.556;2024-01-07T09:41:37;4.80;99.90
18898;DHT22;9581;49.484;8.556;2024-01-07T09:44:04;4.90;99.90
18898;DHT22;9581;49.484;8.556;2024-01-07T09:46:34;4.80;99.90
18898;DHT22;9581;49.484;8.556;2024-01-07T09:49:03;4.90;99.90
18898;DHT22;9581;49.484;8.556;2024-01-07T09:51:35;4.90;99.90
18898;DHT22;9581;49.484;8.556;2024-01-07T09:54:03;4.90;99.90
18898;DHT22;9581;49.484;8.556;2024-01-07T09:56:38;4.90;99.90
18898;DHT22;9581;49.484;8.556;2024-01-07T09:59:06;4.80;99.90
18898;DHT22;9581;49.484;8.556;2024-01-07T10:01:34;5.00;99.90
18898;DHT22;9581;49.484;8.556;2024-01-07T10:04:01;5.00;99.90
18898;DHT22;9581;49.484;8.556;2024-01-07T10:06:28;4.90;99.90
18898;DHT22;9581;49.484;8.556;2024-01-07T10:08:56;4.90;99.90
18898;DHT22;9581;49.484;8.556;2024-01-07T10:11:23;5.00;99.90
18898;DHT22;9581;49.484;8.556;2024-01-07T10:13:49;5.10;99.90
18898;DHT22;9581;49.484;8.556;2024-01-07T10:16:16;5.40;99.90
18898;DHT22;9581;49.484;8.556;2024-01-07T10:18:43;5.30;99.90
18898;DHT22;9581;49.484;8.556;2024-01-07T10:21:10;5.30;99.90
18898;DHT22;9581;49.484;8.556;2024-01-07T10:23:37;5.00;99.90
18898;DHT22;9581;49.484;8.556;2024-01-07T10:26:05;5.10;99.90
18898;DHT22;9581;49.484;8.556;2024-01-07T10:28:32;5.10;99.90
18898;DHT22;9581;49.484;8.556;2024-01-07T10:31:07;5.10;99.90
18898;DHT22;9581;49.484;8.556;2024-01-07T10:33:33;5.00;99.90
18898;DHT22;9581;49.484;8.556;2024-01-07T10:36:02;5.00;99.90
18898;DHT22;9581;49.484;8.556;2024-01-07T10:38:31;4.90;99.90
18898;DHT22;9581;49.484;8.556;2024-01-07T10:40:59;4.80;99.90
18898;DHT22;9581;49.484;8.556;2024-01-07T10:43:26;4.80;99.90
18898;DHT22;9581;49.484;8.556;2024-01-07T10:45:55;4.90;99.90
18898;DHT22;9581;49.484;8.556;2024-01-07T10:48:23;4.90;99.90
18898;DHT22;9581;49.484;8.556;2024-01-07T10:50:55;5.10;99.90
18898;DHT22;9581;49.484;8.556;2024-01-07T10:53:25;5.20;99.90
18898;DHT22;9581;49.484;8.556;2024-01-07T10:55:58;5.20;99.90
18898;DHT22;9581;49.484;8.556;2024-01-07T10:58:26;5.20;99.90
18898;DHT22;9581;49.484;8.556;2024-01-07T11:00:53;5.30;99.90
18898;DHT22;9581;49.484;8.556;2024-01-07T11:03:30;5.30;99.90
18898;DHT22;9581;49.484;8.556;2024-01-07T11:06:01;5.30;99.90
18898;DHT22;9581;49.484;8.556;2024-01-07T11:08:33;5.40;99.90
18898;DHT22;9581;49.484;8.556;2024-01-07T11:11:05;5.40;99.90
18898;DHT22;9581;49.484;8.556;2024-01-07T11:13:33;5.50;99.90
18898;DHT22;9581;49.484;8.556;2024-01-07T11:16:02;5.40;99.90
18898;DHT22;9581;49.484;8.556;2024-01-07T11:18:30;5.50;99.90
18898;DHT22;9581;49.484;8.556;2024-01-07T11:21:00;5.70;99.90
18898;DHT22;9581;49.484;8.556;2024-01-07T11:23:29;5.80;99.90
18898;DHT22;9581;49.484;8.556;2024-01-07T11:25:57;5.80;99.90
18898;DHT22;9581;49.484;8.556;2024-01-07T11:28:43;5.70;99.90
18898;DHT22;9581;49.484;8.556;2024-01-07T11:31:10;5.70;99.90
18898;DHT22;9581;49.484;8.556;2024-01-07T11:33:38;5.80;99.90
18898;DHT22;9581;49.484;8.556;2024-01-07T11:36:05;5.60;99.90
18898;DHT22;9581;49.484;8.556;2024-01-07T11:38:33;5.60;99.90
18898;DHT22;9581;49.484;8.556;2024-01-07T11:41:01;5.60;99.90
18898;DHT22;9581;49.484;8.556;2024-01-07T11:43:30;5.50;99.90
18898;DHT22;9581;49.484;8.556;2024-01-07T11:45:56;5.70;99.90
18898;DHT22;9581;49.484;8.556;2024-01-07T11:48:23;5.90;99.90
18898;DHT22;9581;49.484;8.556;2024-01-07T11:50:51;5.50;99.90
18898;DHT22;9581;49.484;8.556;2024-01-07T11:53:18;5.50;99.90
18898;DHT22;9581;49.484;8.556;2024-01-07T11:55:45;5.60;99.90
18898;DHT22;9581;49.484;8.556;2024-01-07T11:58:12;5.70;99.90
18898;DHT22;9581;49.484;8.556;2024-01-07T12:00:39;5.90;99.90
18898;DHT22;9581;49.484;8.556;2024-01-07T12:03:06;5.80;99.90
18898;DHT22;9581;49.484;8.556;2024-01-07T12:05:32;5.50;99.90
18898;DHT22;9581;49.484;8.556;2024-01-07T12:08:01;5.60;99.90
18898;DHT22;9581;49.484;8.556;2024-01-07T12:10:29;5.30;99.90
18898;DHT22;9581;49.484;8.556;2024-01-07T12:12:56;5.10;99.90
18898;DHT22;9581;49.484;8.556;2024-01-07T12:15:23;5.00;99.90
18898;DHT22;9581;49.484;8.556;2024-01-07T12:17:56;5.00;99.90
18898;DHT22;9581;49.484;8.556;2024-01-07T12:20:24;4.90;99.90
18898;DHT22;9581;49.484;8.556;2024-01-07T12:22:51;4.80;99.90
18898;DHT22;9581;49.484;8.556;2024-01-07T12:25:22;4.60;99.90
18898;DHT22;9581;49.484;8.556;2024-01-07T12:27:50;4.80;99.90
18898;DHT22;9581;49.484;8.556;2024-01-07T12:30:19;4.70;99.90
18898;DHT22;9581;49.484;8.556;2024-01-07T12:32:46;4.50;99.90
18898;DHT22;9581;49.484;8.556;2024-01-07T12:35:13;4.40;99.90
18898;DHT22;9581;49.484;8.556;2024-01-07T12:37:40;4.50;99.90
18898;DHT22;9581;49.484;8.556;2024-01-07T12:40:07;4.50;99.90
18898;DHT22;9581;49.484;8.556;2024-01-07T12:42:37;4.50;99.90
18898;DHT22;9581;49.484;8.556;2024-01-07T12:45:10;4.50;99.90
18898;DHT22;9581;49.484;8.556;2024-01-07T12:47:37;4.30;99.90
18898;DHT22;9581;49.484;8.556;2024-01-07T12:50:04;4.30;99.90
18898;DHT22;9581;49.484;8.556;2024-01-07T12:52:31;4.30;99.90
18898;DHT22;9581;49.484;8.556;2024-01-07T12:54:57;4.40;99.90
18898;DHT22;9581;49.484;8.556;2024-01-07T12:57:24;4.40;99.90
18898;DHT22;9581;49.484;8.556;2024-01-07T12:59:52;4.30;99.90
18898;DHT22;9581;49.484;8.556;2024-01-07T13:02:19;4.20;99.90
18898;DHT22;9581;49.484;8.556;2024-01-07T13:04:46;4.30;99.90
18898;DHT22;9581;49.484;8.556;2024-01-07T13:07:13;4.20;99.90
18898;DHT22;9581;49.484;8.556;2024-01-07T13:09:40;4.30;99.90
18898;DHT22;9581;49.484;8.556;2024-01-07T13:12:07;4.30;99.90
18898;DHT22;9581;49.484;8.556;2024-01-07T13:14:33;4.10;99.90
18898;DHT22;9581;49.484;8.556;2024-01-07T13:17:01;4.20;99.90
18898;DHT22;9581;49.484;8.556;2024-01-07T13:19:28;4.10;99.90
18898;DHT22;9581;49.484;8.556;2024-01-07T13:21:55;4.10;99.90
18898;DHT22;9581;49.484;8.556;2024-01-07T13:24:23;3.90;99.90
18898;DHT22;9581;49.484;8.556;2024-01-07T13:26:50;4.00;99.90
18898;DHT22;9581;49.484;8.556;2024-01-07T13:29:17;4.00;99.90
18898;DHT22;9581;49.484;8.556;2024-01-07T13:31:43;3.90;99.90
18898;DHT22;9581;49.484;8.556;2024-01-07T13:34:11;4.00;99.90
18898;DHT22;9581;49.484;8.556;2024-01-07T13:36:39;3.90;99.90
18898;DHT22;9581;49.484;8.556;2024-01-07T13:39:06;3.90;99.90
18898;DHT22;9581;49.484;8.556;2024-01-07T13:41:33;4.00;99.90
18898;DHT22;9581;49.484;8.556;2024-01-07T13:44:00;3.90;99.90
18898;DHT22;9581;49.484;8.556;2024-01-07T13:46:28;3.80;99.90
18898;DHT22;9581;49.484;8.556;2024-01-07T13:48:55;3.80;99.90
18898;DHT22;9581;49.484;8.556;2024-01-07T13:51:23;3.80;99.90
18898;DHT22;9581;49.484;8.556;2024-01-07T13:53:49;3.70;99.90
18898;DHT22;9581;49.484;8.556;2024-01-07T13:56:16;3.70;99.90
18898;DHT22;9581;49.484;8.556;2024-01-07T13:58:43;3.70;99.90
18898;DHT22;9581;49.484;8.556;2024-01-07T14:01:12;3.80;99.90
18898;DHT22;9581;49.484;8.556;2024-01-07T14:03:38;3.70;99.90
18898;DHT22;9581;49.484;8.556;2024-01-07T14:06:05;3.80;99.90
18898;DHT22;9581;49.484;8.556;2024-01-07T14:08:33;3.90;99.90
18898;DHT22;9581;49.484;8.556;2024-01-07T14:11:00;3.70;99.90
18898;DHT22;9581;49.484;8.556;2024-01-07T14:13:28;3.80;99.90
18898;DHT22;9581;49.484;8.556;2024-01-07T14:15:55;3.80;99.90
18898;DHT22;9581;49.484;8.556;2024-01-07T14:18:21;3.80;99.90
18898;DHT22;9581;49.484;8.556;2024-01-07T14:20:48;3.70;99.90
18898;DHT22;9581;49.484;8.556;2024-01-07T14:23:15;3.70;99.90
18898;DHT22;9581;49.484;8.556;2024-01-07T14:25:43;3.70;99.90
18898;DHT22;9581;49.484;8.556;2024-01-07T14:28:09;3.60;99.90
18898;DHT22;9581;49.484;8.556;2024-01-07T14:30:36;3.70;99.90
18898;DHT22;9581;49.484;8.556;2024-01-07T14:33:04;3.60;99.90
18898;DHT22;9581;49.484;8.556;2024-01-07T14:35:30;3.60;99.90
18898;DHT22;9581;49.484;8.556;2024-01-07T14:37:59;3.50;99.90
18898;DHT22;9581;49.484;8.556;2024-01-07T14:40:26;3.50;99.90
18898;DHT22;9581;49.484;8.556;2024-01-07T14:42:54;3.50;99.90
18898;DHT22;9581;49.484;8.556;2024-01-07T14:45:23;3.40;99.90
18898;DHT22;9581;49.484;8.556;2024-01-07T14:47:50;3.50;99.90
18898;DHT22;9581;49.484;8.556;2024-01-07T14:50:17;3.40;99.90
18898;DHT22;9581;49.484;8.556;2024-01-07T14:52:44;3.40;99.90
18898;DHT22;9581;49.484;8.556;2024-01-07T14:55:11;3.30;99.90
18898;DHT22;9581;49.484;8.556;2024-01-07T14:57:38;3.30;99.90
18898;DHT22;9581;49.484;8.556;2024-01-07T15:00:07;3.50;99.90
18898;DHT22;9581;49.484;8.556;2024-01-07T15:02:34;3.30;99.90
18898;DHT22;9581;49.484;8.556;2024-01-07T15:05:01;3.20;99.90
18898;DHT22;9581;49.484;8.556;2024-01-07T15:07:28;3.10;99.90
18898;DHT22;9581;49.484;8.556;2024-01-07T15:09:55;3.10;99.90
18898;DHT22;9581;49.484;8.556;2024-01-07T15:12:22;3.00;99.90
18898;DHT22;9581;49.484;8.556;2024-01-07T15:14:49;3.10;99.90
18898;DHT22;9581;49.484;8.556;2024-01-07T15:17:18;3.10;99.90
18898;DHT22;9581;49.484;8.556;2024-01-07T15:19:45;3.00;99.90
18898;DHT22;9581;49.484;8.556;2024-01-07T15:22:12;3.00;99.90
18898;DHT22;9581;49.484;8.556;2024-01-07T15:24:39;3.00;99.90
18898;DHT22;9581;49.484;8.556;2024-01-07T15:27:05;2.90;99.90
18898;DHT22;9581;49.484;8.556;2024-01-07T15:29:32;2.80;99.90
18898;DHT22;9581;49.484;8.556;2024-01-07T15:31:59;2.80;99.90
18898;DHT22;9581;49.484;8.556;2024-01-07T15:34:27;2.80;99.90
18898;DHT22;9581;49.484;8.556;2024-01-07T15:36:53;2.60;99.90
18898;DHT22;9581;49.484;8.556;2024-01-07T15:39:20;2.50;99.90
18898;DHT22;9581;49.484;8.556;2024-01-07T15:41:47;2.40;99.90
18898;DHT22;9581;49.484;8.556;2024-01-07T15:44:13;2.30;99.90
18898;DHT22;9581;49.484;8.556;2024-01-07T15:46:40;2.30;99.90
18898;DHT22;9581;49.484;8.556;2024-01-07T15:49:07;2.20;99.90
18898;DHT22;9581;49.484;8.556;2024-01-07T15:51:35;2.20;99.90
18898;DHT22;9581;49.484;8.556;2024-01-07T15:54:02;2.20;99.90
18898;DHT22;9581;49.484;8.556;2024-01-07T15:56:28;2.20;99.90
18898;DHT22;9581;49.484;8.556;2024-01-07T15:58:55;2.20;99.90
18898;DHT22;9581;49.484;8.556;2024-01-07T16:01:22;2.10;99.90